createdAt,value
2018-09-06T00:01:43.335Z,18.70
2018-09-06T00:04:13.911Z,18.70
2018-09-06T00:06:44.478Z,18.70
2018-09-06T00:09:15.031Z,18.70
2018-09-06T00:11:45.848Z,18.70
2018-09-06T00:14:16.410Z,18.70
2018-09-06T00:16:46.964Z,18.70
2018-09-06T00:19:17.524Z,18.70
2018-09-06T00:21:48.298Z,18.70
2018-09-06T00:24:19.322Z,18.70
2018-09-06T00:26:50.450Z,18.70
2018-09-06T00:29:21.010Z,18.70
2018-09-06T00:31:51.395Z,18.70
2018-09-06T00:34:21.966Z,18.70
2018-09-06T00:36:52.315Z,18.70
2018-09-06T00:39:23.110Z,18.70
2018-09-06T00:41:53.700Z,18.70
2018-09-06T00:44:24.266Z,18.70
2018-09-06T00:46:54.866Z,18.70
2018-09-06T00:49:25.231Z,18.60
2018-09-06T00:51:56.208Z,18.60
2018-09-06T00:54:26.922Z,18.50
2018-09-06T00:56:57.518Z,18.50
2018-09-06T00:59:28.091Z,18.40
2018-09-06T01:01:59.081Z,18.30
2018-09-06T01:04:30.035Z,18.30
2018-09-06T01:07:00.603Z,18.20
2018-09-06T01:09:31.150Z,18.10
2018-09-06T01:12:02.412Z,18.10
2018-09-06T01:14:33.218Z,18.00
2018-09-06T01:17:03.782Z,18.00
2018-09-06T01:19:34.599Z,18.00
2018-09-06T01:22:05.726Z,18.00
2018-09-06T01:24:36.977Z,18.00
2018-09-06T01:27:07.542Z,18.00
2018-09-06T01:29:38.102Z,18.00
2018-09-06T01:32:09.029Z,18.00
2018-09-06T01:34:39.807Z,18.00
2018-09-06T01:37:10.963Z,18.00
2018-09-06T01:39:41.503Z,18.00
2018-09-06T01:42:11.840Z,18.00
2018-09-06T01:44:42.386Z,18.00
2018-09-06T01:47:13.466Z,18.00
2018-09-06T01:49:44.217Z,18.00
2018-09-06T01:52:14.914Z,18.00
2018-09-06T01:54:45.450Z,18.00
2018-09-06T01:57:16.047Z,18.00
2018-09-06T01:59:46.386Z,18.00
2018-09-06T02:02:18.398Z,18.00
2018-09-06T02:04:48.736Z,18.00
2018-09-06T02:07:19.093Z,18.00
2018-09-06T02:09:50.549Z,18.00
2018-09-06T02:12:21.146Z,18.10
2018-09-06T02:14:51.494Z,18.10
2018-09-06T02:17:22.265Z,18.10
2018-09-06T02:19:52.823Z,18.10
2018-09-06T02:22:23.389Z,18.20
2018-09-06T02:24:53.974Z,18.10
2018-09-06T02:27:24.746Z,18.20
2018-09-06T02:29:55.316Z,18.20
2018-09-06T02:32:25.697Z,18.10
2018-09-06T02:34:56.270Z,18.10
2018-09-06T02:37:27.023Z,18.10
2018-09-06T02:39:57.575Z,18.10
2018-09-06T02:42:28.590Z,18.10
2018-09-06T02:44:59.279Z,18.10
2018-09-06T02:47:29.892Z,18.10
2018-09-06T02:50:05.748Z,18.10
2018-09-06T02:52:36.642Z,18.10
2018-09-06T02:55:07.327Z,18.00
2018-09-06T02:57:38.346Z,18.00
2018-09-06T03:00:09.177Z,18.00
2018-09-06T03:03:23.976Z,18.00
2018-09-06T03:05:54.527Z,18.00
2018-09-06T03:08:25.177Z,17.90
2018-09-06T03:11:00.150Z,17.90
2018-09-06T03:13:30.693Z,17.90
2018-09-06T03:16:01.824Z,17.90
2018-09-06T03:18:32.379Z,17.80
2018-09-06T03:21:02.957Z,17.80
2018-09-06T03:23:33.514Z,17.80
2018-09-06T03:26:08.462Z,17.80
2018-09-06T03:28:38.830Z,17.80
2018-09-06T03:31:09.194Z,17.80
2018-09-06T03:33:39.920Z,17.80
2018-09-06T03:36:10.800Z,17.80
2018-09-06T03:38:41.682Z,17.80
2018-09-06T03:41:12.235Z,17.80
2018-09-06T03:43:42.602Z,17.80
2018-09-06T03:46:13.145Z,17.80
2018-09-06T03:48:44.013Z,17.80
2018-09-06T03:51:14.570Z,17.80
2018-09-06T03:53:45.146Z,17.80
2018-09-06T03:56:15.927Z,17.80
2018-09-06T03:58:46.617Z,17.80
2018-09-06T04:01:16.954Z,17.70
2018-09-06T04:03:47.722Z,17.60
2018-09-06T04:06:18.058Z,17.60
2018-09-06T04:08:49.802Z,17.60
2018-09-06T04:11:20.350Z,17.60
2018-09-06T04:13:51.015Z,17.60
2018-09-06T04:16:21.562Z,17.60
2018-09-06T04:18:52.352Z,17.60
2018-09-06T04:21:22.895Z,17.60
2018-09-06T04:23:53.825Z,17.60
2018-09-06T04:26:24.388Z,17.70
2018-09-06T04:28:55.046Z,17.60
2018-09-06T04:31:25.696Z,17.70
2018-09-06T04:33:56.596Z,17.70
2018-09-06T04:36:27.842Z,17.70
2018-09-06T04:38:58.426Z,17.70
2018-09-06T04:41:29.000Z,17.70
2018-09-06T04:43:59.767Z,17.80
2018-09-06T04:46:30.318Z,17.80
2018-09-06T04:49:01.171Z,17.80
2018-09-06T04:51:31.738Z,17.80
2018-09-06T04:54:02.308Z,17.90
2018-09-06T04:56:32.855Z,17.90
2018-09-06T04:59:03.735Z,17.90
2018-09-06T05:01:35.132Z,17.90
2018-09-06T05:04:10.003Z,17.90
2018-09-06T05:06:40.591Z,17.90
2018-09-06T05:09:11.461Z,17.90
2018-09-06T05:11:42.175Z,17.90
2018-09-06T05:14:12.727Z,17.90
2018-09-06T05:16:43.309Z,17.90
2018-09-06T05:19:13.898Z,17.90
2018-09-06T05:21:44.751Z,17.90
2018-09-06T05:24:15.375Z,18.00
2018-09-06T05:26:46.127Z,18.00
2018-09-06T05:29:16.724Z,18.00
2018-09-06T05:31:47.287Z,18.00
2018-09-06T05:35:51.349Z,18.00
2018-09-06T05:38:22.169Z,18.00
2018-09-06T05:40:52.756Z,18.10
2018-09-06T05:43:23.522Z,18.10
2018-09-06T05:45:55.991Z,18.10
2018-09-06T05:48:26.588Z,18.10
2018-09-06T05:50:56.949Z,18.20
2018-09-06T05:53:27.360Z,18.20
2018-09-06T05:55:57.878Z,18.20
2018-09-06T05:58:28.459Z,18.20
2018-09-06T06:00:59.278Z,18.20
2018-09-06T06:03:29.842Z,18.20
2018-09-06T06:06:00.960Z,18.20
2018-09-06T06:08:47.323Z,18.20
2018-09-06T06:11:18.534Z,18.20
2018-09-06T06:13:49.084Z,18.10
2018-09-06T06:16:19.511Z,18.20
2018-09-06T06:18:50.060Z,18.10
2018-09-06T06:21:20.413Z,18.20
2018-09-06T06:23:50.974Z,18.20
2018-09-06T06:26:21.573Z,18.20
2018-09-06T06:28:51.914Z,18.20
2018-09-06T06:31:22.495Z,18.20
2018-09-06T06:33:53.108Z,18.30
2018-09-06T06:36:23.948Z,18.30
2018-09-06T06:38:55.147Z,18.30
2018-09-06T06:41:26.712Z,18.30
2018-09-06T06:43:57.879Z,18.30
2018-09-06T06:46:29.314Z,18.30
2018-09-06T06:48:59.882Z,18.30
2018-09-06T06:51:30.685Z,18.40
2018-09-06T06:54:01.462Z,18.40
2018-09-06T06:56:32.038Z,18.40
2018-09-06T06:59:02.662Z,18.50
2018-09-06T07:01:33.403Z,18.40
2018-09-06T07:04:04.203Z,18.40
2018-09-06T07:06:34.807Z,18.40
2018-09-06T07:09:08.378Z,18.40
2018-09-06T07:11:39.326Z,18.40
2018-09-06T07:14:10.522Z,18.40
2018-09-06T07:16:41.078Z,18.40
2018-09-06T07:19:11.658Z,18.40
2018-09-06T07:21:42.007Z,18.40
2018-09-06T07:24:12.926Z,18.40
2018-09-06T07:26:43.487Z,18.50
2018-09-06T07:29:14.464Z,18.50
2018-09-06T07:31:45.731Z,18.50
2018-09-06T07:34:16.282Z,18.50
2018-09-06T07:36:46.630Z,18.50
2018-09-06T07:39:16.994Z,18.60
2018-09-06T07:41:48.262Z,18.60
2018-09-06T07:44:19.027Z,18.50
2018-09-06T07:46:49.948Z,18.60
2018-09-06T07:49:20.730Z,18.60
2018-09-06T07:51:51.329Z,18.50
2018-09-06T07:54:21.904Z,18.40
2018-09-06T07:56:52.587Z,18.40
2018-09-06T07:59:23.355Z,18.40
2018-09-06T08:01:54.033Z,18.40
2018-09-06T08:04:24.618Z,18.40
2018-09-06T08:06:54.983Z,18.40
2018-09-06T08:09:25.545Z,18.30
2018-09-06T08:11:56.161Z,18.30
2018-09-06T08:14:26.911Z,18.30
2018-09-06T08:16:57.710Z,18.30
2018-09-06T08:19:28.295Z,18.20
2018-09-06T08:21:58.936Z,18.10
2018-09-06T08:24:29.682Z,18.10
2018-09-06T08:27:00.676Z,18.10
2018-09-06T08:29:31.189Z,18.00
2018-09-06T08:32:02.835Z,18.00
2018-09-06T08:34:33.930Z,18.00
2018-09-06T08:37:05.123Z,17.90
2018-09-06T08:39:36.505Z,17.90
2018-09-06T08:42:07.813Z,17.80
2018-09-06T08:44:39.245Z,17.70
2018-09-06T08:47:10.507Z,17.70
2018-09-06T08:49:42.137Z,17.60
2018-09-06T08:52:13.631Z,17.60
2018-09-06T08:54:45.488Z,17.50
2018-09-06T08:57:18.208Z,17.60
2018-09-06T08:59:50.709Z,17.50
2018-09-06T09:02:22.065Z,17.50
2018-09-06T09:04:53.632Z,17.50
2018-09-06T09:07:24.488Z,17.40
2018-09-06T09:09:55.235Z,17.50
2018-09-06T09:12:25.847Z,17.50
2018-09-06T09:14:56.542Z,17.60
2018-09-06T09:17:27.275Z,17.50
2018-09-06T09:19:57.830Z,17.60
2018-09-06T09:22:28.339Z,17.50
2018-09-06T09:24:59.046Z,17.60
2018-09-06T09:27:29.674Z,17.60
2018-09-06T09:30:00.230Z,17.70
2018-09-06T09:32:30.890Z,17.70
2018-09-06T09:35:01.529Z,17.70
2018-09-06T09:37:32.094Z,17.80
2018-09-06T09:40:02.490Z,17.80
2018-09-06T09:42:33.075Z,17.90
2018-09-06T09:45:03.730Z,18.00
2018-09-06T09:50:03.712Z,18.00
2018-09-06T09:52:34.285Z,18.00
2018-09-06T09:55:04.941Z,18.00
2018-09-06T09:57:35.414Z,17.90
2018-09-06T10:00:06.191Z,17.90
2018-09-06T10:02:42.150Z,17.90
2018-09-06T10:05:18.779Z,17.90
2018-09-06T10:07:55.955Z,18.00
2018-09-06T10:10:26.872Z,18.10
2018-09-06T10:12:57.479Z,18.10
2018-09-06T10:15:28.034Z,18.10
2018-09-06T10:17:58.659Z,18.20
2018-09-06T10:20:29.418Z,18.40
2018-09-06T10:23:01.946Z,18.60
2018-09-06T10:25:33.561Z,18.70
2018-09-06T10:28:04.002Z,18.90
2018-09-06T10:30:34.610Z,19.00
2018-09-06T10:33:06.488Z,19.10
2018-09-06T10:35:37.303Z,19.10
2018-09-06T10:38:08.124Z,19.00
2018-09-06T10:40:39.034Z,19.10
2018-09-06T10:43:10.082Z,19.00
2018-09-06T10:45:40.758Z,19.00
2018-09-06T10:48:15.854Z,19.00
2018-09-06T10:50:46.657Z,19.00
2018-09-06T10:53:17.244Z,19.00
2018-09-06T10:55:47.850Z,19.20
2018-09-06T10:58:18.631Z,19.30
2018-09-06T11:00:49.475Z,19.40
2018-09-06T11:03:20.383Z,19.30
2018-09-06T11:05:50.931Z,19.30
2018-09-06T11:08:21.581Z,19.10
2018-09-06T11:10:52.142Z,19.10
2018-09-06T11:13:22.612Z,19.10
2018-09-06T11:15:53.258Z,19.00
2018-09-06T11:18:23.622Z,18.90
2018-09-06T11:20:54.183Z,18.90
2018-09-06T11:23:24.554Z,18.90
2018-09-06T11:25:55.163Z,18.70
2018-09-06T11:28:25.710Z,18.70
2018-09-06T11:30:56.298Z,18.80
2018-09-06T11:33:26.982Z,18.80
2018-09-06T11:35:57.633Z,18.90
2018-09-06T11:38:28.178Z,18.90
2018-09-06T11:40:58.735Z,19.00
2018-09-06T11:43:29.315Z,19.00
2018-09-06T11:45:59.971Z,19.00
2018-09-06T11:48:30.539Z,18.90
2018-09-06T11:51:01.108Z,18.90
2018-09-06T11:53:31.710Z,18.90
2018-09-06T11:56:02.242Z,18.90
2018-09-06T11:58:32.844Z,19.00
2018-09-06T12:01:03.442Z,18.90
2018-09-06T12:03:33.998Z,18.90
2018-09-06T12:06:04.552Z,18.80
2018-09-06T12:08:35.307Z,18.90
2018-09-06T12:11:05.842Z,18.80
2018-09-06T12:13:36.372Z,18.90
2018-09-06T12:16:07.671Z,18.90
2018-09-06T12:18:38.261Z,18.80
2018-09-06T12:21:09.233Z,18.90
2018-09-06T12:23:39.783Z,18.90
2018-09-06T12:26:10.304Z,18.90
2018-09-06T12:28:40.874Z,18.90
2018-09-06T12:31:11.390Z,18.80
2018-09-06T12:33:42.038Z,18.70
2018-09-06T12:36:13.422Z,18.50
2018-09-06T12:38:44.006Z,18.60
2018-09-06T12:41:14.597Z,18.50
2018-09-06T12:43:45.559Z,18.50
2018-09-06T12:46:16.394Z,18.50
2018-09-06T12:48:47.276Z,18.30
2018-09-06T12:51:17.807Z,18.20
2018-09-06T12:53:48.399Z,18.10
2018-09-06T12:56:18.723Z,18.00
2018-09-06T12:58:49.266Z,17.90
2018-09-06T13:01:19.746Z,17.80
2018-09-06T13:03:50.301Z,17.80
2018-09-06T13:06:20.830Z,17.90
2018-09-06T13:08:51.508Z,17.90
2018-09-06T13:11:22.034Z,17.90
2018-09-06T13:13:52.625Z,17.90
2018-09-06T13:16:23.127Z,17.90
2018-09-06T13:18:54.129Z,17.80
2018-09-06T13:21:24.842Z,17.80
2018-09-06T13:23:55.692Z,17.70
2018-09-06T13:26:26.946Z,17.80
2018-09-06T13:28:57.534Z,17.80
2018-09-06T13:31:28.134Z,17.70
2018-09-06T13:33:58.926Z,17.70
2018-09-06T13:36:29.477Z,17.80
2018-09-06T13:39:00.012Z,17.80
2018-09-06T13:41:30.900Z,17.80
2018-09-06T13:44:01.459Z,17.80
2018-09-06T13:46:32.039Z,17.80
2018-09-06T13:51:17.902Z,17.80
2018-09-06T13:53:48.471Z,17.90
2018-09-06T13:56:18.826Z,17.90
2018-09-06T13:58:49.373Z,17.90
2018-09-06T14:01:19.929Z,18.00
2018-09-06T14:03:50.486Z,18.00
2018-09-06T14:06:21.320Z,18.00
2018-09-06T14:08:51.998Z,18.00
2018-09-06T14:11:22.803Z,18.00
2018-09-06T14:13:53.711Z,18.00
2018-09-06T14:16:24.458Z,18.00
2018-09-06T14:18:55.203Z,18.00
2018-09-06T14:21:25.790Z,18.10
2018-09-06T14:23:56.382Z,18.30
2018-09-06T14:26:27.404Z,18.50
2018-09-06T14:28:57.999Z,18.70
2018-09-06T14:31:28.742Z,18.80
2018-09-06T14:34:02.610Z,19.10
2018-09-06T14:36:33.843Z,19.30
2018-09-06T14:39:06.553Z,19.30
2018-09-06T14:41:37.514Z,19.20
2018-09-06T14:44:08.095Z,19.10
2018-09-06T14:46:39.830Z,19.00
2018-09-06T14:49:10.432Z,19.10
2018-09-06T14:51:41.012Z,18.90
2018-09-06T14:54:12.016Z,18.70
2018-09-06T14:56:42.597Z,18.70
2018-09-06T14:59:13.138Z,18.60
2018-09-06T15:01:45.656Z,18.50
2018-09-06T15:04:16.341Z,18.40
2018-09-06T15:06:47.614Z,18.30
2018-09-06T15:09:19.940Z,18.30
2018-09-06T15:11:50.535Z,18.10
2018-09-06T15:14:21.103Z,18.10
2018-09-06T15:16:51.469Z,18.10
2018-09-06T15:19:22.069Z,18.00
2018-09-06T15:21:52.637Z,18.10
2018-09-06T15:24:23.010Z,18.10
2018-09-06T15:26:53.530Z,18.20
2018-09-06T15:29:24.131Z,18.20
2018-09-06T15:31:54.523Z,18.20
2018-09-06T15:34:25.567Z,18.20
2018-09-06T15:36:56.150Z,18.20
2018-09-06T15:42:15.724Z,18.20
2018-09-06T15:44:46.275Z,18.20
2018-09-06T15:47:16.673Z,18.30
2018-09-06T15:49:47.352Z,18.40
2018-09-06T15:52:18.079Z,18.50
2018-09-06T15:57:31.152Z,19.00
2018-09-06T16:00:01.585Z,19.30
2018-09-06T16:02:32.251Z,19.30
2018-09-06T16:05:02.929Z,19.30
2018-09-06T16:07:33.562Z,19.20
2018-09-06T16:10:05.923Z,19.40
2018-09-06T16:12:36.786Z,19.50
2018-09-06T16:15:07.330Z,19.60
2018-09-06T16:17:38.206Z,19.40
2018-09-06T16:20:08.854Z,19.10
2018-09-06T16:22:39.700Z,19.00
2018-09-06T16:25:10.206Z,18.90
2018-09-06T16:27:40.812Z,18.70
2018-09-06T16:30:11.566Z,18.70
2018-09-06T16:32:42.091Z,18.70
2018-09-06T16:35:12.480Z,18.50
2018-09-06T16:37:43.825Z,18.40
2018-09-06T16:40:15.361Z,18.20
2018-09-06T16:42:45.963Z,18.20
2018-09-06T16:45:16.759Z,18.20
2018-09-06T16:47:47.414Z,18.10
2018-09-06T16:50:17.955Z,18.10
2018-09-06T16:52:48.487Z,18.00
2018-09-06T16:55:19.051Z,18.00
2018-09-06T16:57:49.598Z,17.90
2018-09-06T17:00:19.974Z,17.90
2018-09-06T17:02:50.527Z,18.00
2018-09-06T17:05:21.082Z,18.00
2018-09-06T17:07:51.942Z,18.00
2018-09-06T17:10:22.579Z,18.00
2018-09-06T17:12:53.344Z,17.90
2018-09-06T17:15:23.885Z,17.90
2018-09-06T17:17:54.502Z,17.90
2018-09-06T17:20:24.826Z,17.80
2018-09-06T17:22:55.778Z,17.80
2018-09-06T17:25:26.327Z,17.80
2018-09-06T17:27:56.927Z,17.80
2018-09-06T17:30:27.494Z,17.80
2018-09-06T17:32:57.953Z,17.80
2018-09-06T17:35:28.753Z,17.70
2018-09-06T17:37:59.887Z,17.70
2018-09-06T17:40:30.790Z,17.70
2018-09-06T17:43:01.130Z,17.70
2018-09-06T17:45:32.223Z,17.70
2018-09-06T17:48:03.495Z,17.70
2018-09-06T17:50:35.279Z,17.60
2018-09-06T17:53:06.554Z,17.60
2018-09-06T17:55:36.908Z,17.60
2018-09-06T17:58:07.707Z,17.50
2018-09-06T18:00:56.099Z,17.50
2018-09-06T18:03:26.986Z,17.40
2018-09-06T18:05:57.762Z,17.40
2018-09-06T18:08:28.154Z,17.40
2018-09-06T18:10:58.545Z,17.30
2018-09-06T18:13:29.777Z,17.30
2018-09-06T18:16:00.322Z,17.30
2018-09-06T18:18:30.710Z,17.30
2018-09-06T18:21:01.242Z,17.20
2018-09-06T18:23:31.895Z,17.20
2018-09-06T18:26:02.582Z,17.20
2018-09-06T18:28:33.610Z,17.10
2018-09-06T18:31:04.155Z,17.10
2018-09-06T18:33:34.789Z,17.10
2018-09-06T18:36:05.324Z,17.00
2018-09-06T18:38:36.327Z,17.00
2018-09-06T18:41:06.653Z,17.00
2018-09-06T18:43:37.242Z,16.90
2018-09-06T18:46:07.995Z,16.90
2018-09-06T18:48:38.329Z,16.90
2018-09-06T18:51:09.095Z,16.80
2018-09-06T18:53:39.902Z,16.70
2018-09-06T18:56:10.667Z,16.70
2018-09-06T18:58:41.340Z,16.60
2018-09-06T19:01:12.118Z,16.60
2018-09-06T19:03:42.866Z,16.60
2018-09-06T19:06:13.407Z,16.60
2018-09-06T19:08:43.770Z,16.60
2018-09-06T19:11:14.111Z,16.60
2018-09-06T19:13:44.903Z,16.60
2018-09-06T19:16:15.950Z,16.50
2018-09-06T19:18:46.783Z,16.50
2018-09-06T19:21:17.543Z,16.40
2018-09-06T19:23:48.102Z,16.40
2018-09-06T19:26:18.706Z,16.40
2018-09-06T19:28:49.437Z,16.30
2018-09-06T19:31:20.405Z,16.40
2018-09-06T19:33:51.178Z,16.30
2018-09-06T19:36:21.766Z,16.30
2018-09-06T19:38:52.126Z,16.30
2018-09-06T19:41:22.483Z,16.30
2018-09-06T19:43:53.058Z,16.30
2018-09-06T19:46:23.605Z,16.30
2018-09-06T19:48:54.783Z,16.30
2018-09-06T19:51:25.480Z,16.20
2018-09-06T19:53:55.810Z,16.20
2018-09-06T19:56:26.351Z,16.20
2018-09-06T19:58:57.098Z,16.20
2018-09-06T20:01:27.658Z,16.20
2018-09-06T20:03:58.222Z,16.20
2018-09-06T20:06:28.994Z,16.20
2018-09-06T20:08:59.840Z,16.20
2018-09-06T20:11:30.202Z,16.10
2018-09-06T20:14:00.514Z,16.10
2018-09-06T20:16:31.118Z,16.00
2018-09-06T20:19:01.483Z,16.00
2018-09-06T20:21:32.063Z,16.00
2018-09-06T20:24:02.605Z,16.00
2018-09-06T20:26:33.165Z,15.90
2018-09-06T20:29:03.724Z,15.90
2018-09-06T20:31:34.042Z,15.90
2018-09-06T20:34:04.716Z,15.90
2018-09-06T20:36:35.238Z,15.80
2018-09-06T20:39:07.697Z,15.80
2018-09-06T20:41:38.418Z,15.80
2018-09-06T20:44:09.178Z,15.80
2018-09-06T20:46:39.728Z,15.70
2018-09-06T20:49:10.056Z,15.70
2018-09-06T20:51:40.398Z,15.70
2018-09-06T20:54:11.198Z,15.70
2018-09-06T20:56:41.734Z,15.70
2018-09-06T20:59:12.323Z,15.70
2018-09-06T21:01:43.147Z,15.70
2018-09-06T21:04:13.708Z,15.70
2018-09-06T21:06:44.791Z,15.70
2018-09-06T21:09:15.126Z,15.70
2018-09-06T21:11:46.094Z,15.70
2018-09-06T21:14:16.952Z,15.70
2018-09-06T21:16:47.484Z,15.70
2018-09-06T21:19:18.039Z,15.70
2018-09-06T21:21:48.630Z,15.70
2018-09-06T21:24:19.199Z,15.70
2018-09-06T21:26:49.761Z,15.70
2018-09-06T21:29:20.333Z,15.70
2018-09-06T21:31:50.994Z,15.70
2018-09-06T21:34:21.283Z,15.60
2018-09-06T21:36:51.737Z,15.70
2018-09-06T21:39:22.299Z,15.60
2018-09-06T21:41:52.821Z,15.60
2018-09-06T21:44:23.588Z,15.60
2018-09-06T21:46:54.136Z,15.60
2018-09-06T21:49:24.463Z,15.60
2018-09-06T21:51:55.006Z,15.70
2018-09-06T21:54:25.554Z,15.60
2018-09-06T21:56:55.850Z,15.60
2018-09-06T21:59:26.417Z,15.60
2018-09-06T22:01:56.966Z,15.70
2018-09-06T22:04:27.327Z,15.70
2018-09-06T22:06:57.662Z,15.70
2018-09-06T22:09:28.250Z,15.70
2018-09-06T22:11:58.601Z,15.70
2018-09-06T22:14:29.110Z,15.70
2018-09-06T22:16:59.842Z,15.70
2018-09-06T22:19:30.401Z,15.70
2018-09-06T22:22:00.753Z,15.70
2018-09-06T22:24:31.382Z,15.70
2018-09-06T22:27:01.933Z,15.70
2018-09-06T22:29:32.526Z,15.80
2018-09-06T22:32:03.094Z,15.80
2018-09-06T22:34:33.957Z,15.70
2018-09-06T22:37:04.387Z,15.70
2018-09-06T22:39:36.450Z,15.70
2018-09-06T22:42:07.092Z,15.70
2018-09-06T22:44:38.213Z,15.70
2018-09-06T22:47:08.763Z,15.70
2018-09-06T22:49:39.326Z,15.70
2018-09-06T22:52:09.875Z,15.70
2018-09-06T22:54:40.443Z,15.70
2018-09-06T22:57:11.018Z,15.70
2018-09-06T22:59:41.754Z,15.70
2018-09-06T23:02:12.323Z,15.70
2018-09-06T23:04:42.714Z,15.70
2018-09-06T23:07:13.561Z,15.60
2018-09-06T23:09:44.130Z,15.70
2018-09-06T23:12:14.983Z,15.60
2018-09-06T23:14:45.350Z,15.70
2018-09-06T23:17:16.558Z,15.70
2018-09-06T23:19:47.122Z,15.60
2018-09-06T23:22:17.465Z,15.70
2018-09-06T23:24:47.850Z,15.60
2018-09-06T23:27:18.410Z,15.60
2018-09-06T23:29:48.769Z,15.60
2018-09-06T23:32:19.338Z,15.60
2018-09-06T23:34:49.886Z,15.70
2018-09-06T23:37:20.462Z,15.70
2018-09-06T23:39:51.321Z,15.70
2018-09-06T23:42:24.474Z,15.70
2018-09-06T23:44:56.350Z,15.70
2018-09-06T23:47:26.927Z,15.70
2018-09-06T23:49:57.494Z,15.70
2018-09-06T23:52:28.071Z,15.70
2018-09-06T23:54:58.726Z,15.70
2018-09-06T23:57:29.281Z,15.70
2018-09-06T23:59:59.866Z,15.70
